Time;durP1;ratioP1;P1;durP2;ratioP2;P2;SDS_P1;SDS_P2;PMS_P1;PMS_P2;Temp;Humidity;BMP_temperature;BMP_pressure;BME280_temperature;BME280_humidity;BME280_pressure;Samples;Min_cycle;Max_cycle;Signal;HPM_P1;HPM_P2
2020/12/19 00:05:25;;;;;;;200.63;80.27;;;;;;;-1.63;90.98;100170.02;4446787;78;21164;-86
2020/12/19 00:11:31;;;;;;;191.23;78.37;;;;;;;-1.61;91.28;100167.07;4443123;78;21184;-87
2020/12/19 00:17:32;;;;;;;;;;;;;;;-1.64;91.12;100165.73;4450717;78;21196;-86
2020/12/19 00:23:34;;;;;;;198.77;82.77;;;;;;;-1.61;91.90;100169.75;4449320;78;20185;-86
2020/12/19 00:29:35;;;;;;;208.07;86.47;;;;;;;-1.57;91.68;100174.32;4438151;78;21122;-86
2020/12/19 00:35:36;;;;;;;214.30;88.07;;;;;;;-1.32;92.00;100174.08;4447263;78;21148;-86
2020/12/19 00:41:38;;;;;;;203.80;86.27;;;;;;;-1.21;91.81;100179.19;4444278;79;21538;-85
2020/12/19 00:47:39;;;;;;;211.03;84.67;;;;;;;-1.30;91.46;100182.13;4443459;78;21617;-86
2020/12/19 00:53:42;;;;;;;197.30;84.43;;;;;;;-1.30;91.67;100179.99;4408905;79;21130;-86
2020/12/19 00:59:44;;;;;;;214.33;82.83;;;;;;;-1.15;92.04;100186.70;4358614;80;21623;-86
2020/12/19 01:05:45;;;;;;;177.67;73.77;;;;;;;-1.03;91.81;100196.09;4360068;80;21185;-87
2020/12/19 01:11:47;;;;;;;190.00;80.20;;;;;;;-1.17;91.60;100180.25;4358816;80;21157;-86
2020/12/19 01:17:48;;;;;;;193.27;75.13;;;;;;;-1.13;92.07;100180.00;4355229;80;21194;-86
2020/12/19 01:23:51;;;;;;;181.20;74.10;;;;;;;-1.03;92.16;100176.47;4365960;79;21093;-87
2020/12/19 01:29:53;;;;;;;201.53;78.50;;;;;;;-0.97;91.76;100164.09;4361185;80;21128;-87
2020/12/19 01:35:54;;;;;;;202.03;80.30;;;;;;;-0.99;92.22;100160.90;4360325;80;21276;-86
2020/12/19 01:41:55;;;;;;;173.68;72.03;;;;;;;-0.90;92.20;100178.08;4356638;80;21111;-86
2020/12/19 01:47:57;;;;;;;168.97;71.97;;;;;;;-0.90;91.84;100171.89;4364035;80;21760;-86
2020/12/19 01:53:59;;;;;;;195.83;76.83;;;;;;;-1.03;92.05;100165.71;4381526;79;21617;-86
2020/12/19 02:00:00;;;;;;;177.17;69.03;;;;;;;-1.00;92.02;100156.58;4428811;79;21859;-87
2020/12/19 02:06:04;;;;;;;192.70;73.07;;;;;;;-1.14;91.96;100154.18;4429372;79;21153;-85
2020/12/19 02:12:15;;;;;;;176.57;66.03;;;;;;;-1.10;92.33;100141.83;4428041;79;21157;-86
2020/12/19 02:18:17;;;;;;;152.87;62.47;;;;;;;-1.04;92.11;100132.68;4426205;79;21606;-87
2020/12/19 02:24:18;;;;;;;170.83;66.77;;;;;;;-1.15;92.05;100116.30;4429678;79;21129;-87
2020/12/19 02:30:20;;;;;;;157.35;63.08;;;;;;;-1.21;92.29;100112.55;4426933;79;21116;-86
2020/12/19 02:36:21;;;;;;;181.03;67.30;;;;;;;-1.33;92.43;100110.13;4429611;79;21196;-86
2020/12/19 02:42:23;;;;;;;169.50;66.97;;;;;;;-1.37;92.61;100105.05;4429733;79;21538;-85
2020/12/19 02:48:24;;;;;;;156.17;64.17;;;;;;;-1.33;92.17;100093.23;4425552;79;21148;-87
2020/12/19 02:54:25;;;;;;;153.37;67.70;;;;;;;-1.28;92.23;100099.95;4424959;79;21618;-86
2020/12/19 03:00:27;;;;;;;147.60;65.80;;;;;;;-1.44;92.16;100105.06;4412398;79;21145;-86
2020/12/19 03:06:29;;;;;;;160.20;66.90;;;;;;;-1.63;92.59;100096.75;4416329;79;21133;-86
2020/12/19 03:12:31;;;;;;;217.00;87.63;;;;;;;-1.74;92.64;100089.20;4415767;79;21586;-87
2020/12/19 03:18:32;;;;;;;146.80;58.97;;;;;;;-1.74;92.68;100079.03;4409740;79;21125;-86
2020/12/19 03:24:34;;;;;;;147.03;61.20;;;;;;;-1.57;93.05;100084.11;4421004;79;21133;-87
2020/12/19 03:30:35;;;;;;;140.53;56.70;;;;;;;-1.38;93.02;100081.96;4416605;79;21343;-88
2020/12/19 03:36:37;;;;;;;134.07;53.80;;;;;;;-1.47;92.36;100080.09;4413600;79;21134;-87
2020/12/19 03:42:39;;;;;;;135.33;55.53;;;;;;;-1.51;92.53;100073.10;4414179;79;21138;-86
2020/12/19 03:48:40;;;;;;;127.17;49.30;;;;;;;-1.47;92.55;100069.34;4414059;79;21598;-88
2020/12/19 03:54:42;;;;;;;128.73;53.90;;;;;;;-1.66;92.60;100062.38;4430751;78;21292;-87
2020/12/19 04:00:44;;;;;;;124.30;54.27;;;;;;;-1.86;92.85;100051.09;4445777;78;21154;-89
2020/12/19 04:06:46;;;;;;;133.73;51.57;;;;;;;-1.81;93.10;100028.29;4441613;78;21479;-86
2020/12/19 04:12:47;;;;;;;134.33;53.83;;;;;;;-1.79;92.90;100029.36;4436448;78;21194;-87
2020/12/19 04:18:48;;;;;;;121.57;49.93;;;;;;;-1.62;93.14;100028.02;4444169;78;21138;-86
2020/12/19 04:24:50;;;;;;;137.90;56.07;;;;;;;-1.59;92.83;100017.25;4447146;78;21859;-86
2020/12/19 04:30:51;;;;;;;152.30;56.33;;;;;;;-1.50;92.79;100016.97;4443333;78;21130;-86
2020/12/19 04:36:54;;;;;;;164.67;61.60;;;;;;;-1.46;92.77;100021.27;4441497;78;21122;-86
2020/12/19 04:42:58;;;;;;;166.93;62.23;;;;;;;-1.47;92.57;100014.29;4454103;78;21189;-87
2020/12/19 04:49:00;;;;;;;120.03;46.97;;;;;;;-1.45;92.41;100014.80;4449222;78;21164;-87
2020/12/19 04:55:01;;;;;;;126.60;52.23;;;;;;;-1.63;91.99;100017.55;4446333;78;21175;-86
2020/12/19 05:01:03;;;;;;;131.27;53.03;;;;;;;-1.63;92.78;100020.23;4458263;78;21129;-86
2020/12/19 05:07:08;;;;;;;118.60;48.43;;;;;;;-1.65;92.49;100016.47;4449944;78;21145;-86
2020/12/19 05:13:09;;;;;;;110.60;47.17;;;;;;;-1.70;92.22;100021.02;4444436;78;21105;-86
2020/12/19 05:19:11;;;;;;;104.30;42.77;;;;;;;-1.78;92.16;100029.09;4447766;78;21153;-86
2020/12/19 05:25:17;;;;;;;106.73;43.57;;;;;;;-1.90;92.21;100023.20;4444157;78;21113;-86
2020/12/19 05:31:19;;;;;;;92.93;40.17;;;;;;;-1.86;92.56;100027.47;4443520;78;21169;-86
2020/12/19 05:37:20;;;;;;;93.73;38.53;;;;;;;-1.85;92.53;100025.08;4441248;79;21122;-86
2020/12/19 05:43:22;;;;;;;103.33;39.13;;;;;;;-1.89;92.39;100030.17;4449402;78;21168;-86
2020/12/19 05:49:23;;;;;;;98.83;40.70;;;;;;;-2.00;92.36;100037.95;4453942;78;21125;-86
2020/12/19 05:55:26;;;;;;;106.40;43.37;;;;;;;-2.05;92.51;100037.94;4441993;78;21161;-87
2020/12/19 06:01:28;;;;;;;97.07;40.60;;;;;;;-2.01;92.43;100037.69;4440823;78;21155;-86
2020/12/19 06:07:45;;;;;;;106.47;47.33;;;;;;;-2.06;92.66;100040.36;4438577;78;21288;-86
2020/12/19 06:13:53;;;;;;;118.27;45.93;;;;;;;-1.95;92.79;100039.30;4451722;78;21134;-87
2020/12/19 06:19:57;;;;;;;110.13;45.30;;;;;;;-1.97;92.72;100045.45;4447561;78;21185;-87
2020/12/19 06:25:59;;;;;;;112.07;45.37;;;;;;;-1.87;92.52;100044.13;4448302;77;21568;-87
2020/12/19 06:32:00;;;;;;;93.23;40.90;;;;;;;-1.88;92.36;100054.58;4454556;78;21184;-88
2020/12/19 06:38:02;;;;;;;100.80;40.77;;;;;;;-2.00;92.22;100067.98;4457516;78;21594;-87
2020/12/19 06:44:07;;;;;;;90.37;39.73;;;;;;;-1.95;92.63;100079.55;4449823;78;21182;-87
2020/12/19 06:50:08;;;;;;;89.93;38.50;;;;;;;-1.86;92.73;100078.46;4444111;78;21085;-87
2020/12/19 06:56:26;;;;;;;84.93;36.90;;;;;;;-1.86;92.27;100091.88;4431633;78;21992;-88
2020/12/19 07:02:27;;;;;;;82.90;37.23;;;;;;;-1.86;92.79;100095.38;4445767;78;21274;-87
2020/12/19 07:08:29;;;;;;;75.53;30.73;;;;;;;-1.82;92.70;100099.69;4458721;78;21607;-87
2020/12/19 07:14:42;;;;;;;81.63;35.10;;;;;;;-1.68;92.77;100100.20;4443520;78;21589;-88
2020/12/19 07:20:49;;;;;;;87.57;36.60;;;;;;;-1.72;92.51;100097.80;4456559;78;21191;-88
2020/12/19 07:26:52;;;;;;;83.13;34.97;;;;;;;-1.82;91.97;100095.10;4446640;78;21166;-87
2020/12/19 07:32:54;;;;;;;91.97;37.30;;;;;;;-1.94;92.22;100097.77;4456528;78;21126;-90
2020/12/19 07:38:59;;;;;;;88.37;36.27;;;;;;;-1.96;92.39;100107.44;4448481;79;21090;-91
2020/12/19 07:45:01;;;;;;;90.47;36.27;;;;;;;-1.97;92.75;100100.47;4448872;78;21145;-91
2020/12/19 07:51:06;;;;;;;79.37;33.30;;;;;;;-1.79;92.74;100105.33;4461117;78;21562;-90
2020/12/19 07:57:10;;;;;;;61.13;26.80;;;;;;;-1.78;92.71;100105.59;4439771;78;21110;-91
2020/12/19 08:03:12;;;;;;;77.17;33.73;;;;;;;-1.73;92.95;100106.13;4433029;79;21162;-91
2020/12/19 08:09:19;;;;;;;73.27;32.57;;;;;;;-1.63;92.89;100104.24;4436261;79;21146;-91
2020/12/19 08:15:27;;;;;;;78.90;33.43;;;;;;;-1.50;92.61;100107.48;4434235;79;21149;-92
2020/12/19 08:21:28;;;;;;;107.70;40.27;;;;;;;-1.53;92.74;100098.63;4430018;79;21097;-92
2020/12/19 08:33:53;;;;;;;103.30;41.70;;;;;;;-1.27;92.88;100106.39;4589185;76;23634;-92
2020/12/19 08:40:13;;;;;;;90.23;37.83;;;;;;;-1.44;92.46;100116.59;4490190;78;21138;-92
2020/12/19 08:46:14;;;;;;;90.90;36.43;;;;;;;-1.43;92.77;100111.50;4492212;78;21125;-92
2020/12/19 08:52:19;;;;;;;105.87;40.87;;;;;;;-1.28;92.96;100106.66;4483391;79;21282;-91
2020/12/19 08:58:26;;;;;;;99.07;37.87;;;;;;;-1.28;92.79;100099.39;4506332;79;21165;-90
2020/12/19 09:04:28;;;;;;;86.07;36.47;;;;;;;-1.22;92.68;100095.61;4437074;80;21176;-91
2020/12/19 09:10:33;;;;;;;88.70;35.30;;;;;;;-1.25;92.71;100096.16;4437236;80;21622;-90
2020/12/19 09:16:38;;;;;;;98.40;40.47;;;;;;;-1.25;92.81;100081.94;4473188;79;21145;-91
2020/12/19 09:22:39;;;;;;;90.35;39.70;;;;;;;-1.23;92.94;100082.45;4444266;80;21585;-91
2020/12/19 09:28:40;;;;;;;96.40;41.17;;;;;;;-1.18;92.72;100080.58;4472608;79;21164;-91
2020/12/19 09:34:42;;;;;;;91.13;40.93;;;;;;;-1.15;92.79;100069.28;4467902;80;21116;-91
2020/12/19 09:40:44;;;;;;;100.67;40.77;;;;;;;-1.22;92.74;100059.91;4467999;80;21848;-91
2020/12/19 09:46:46;;;;;;;87.20;37.70;;;;;;;-1.09;92.87;100055.28;4466714;80;21160;-91
2020/12/19 09:52:48;;;;;;;90.97;38.30;;;;;;;-1.03;92.67;100050.16;4472171;79;21518;-91
2020/12/19 09:58:50;;;;;;;97.85;38.17;;;;;;;-0.99;92.58;100052.05;4487089;78;21144;-91
2020/12/19 10:04:52;;;;;;;110.92;42.03;;;;;;;-1.06;92.24;100049.36;4499938;79;21113;-91
2020/12/19 10:10:53;;;;;;;101.05;42.35;;;;;;;-0.98;92.51;100043.42;4505796;79;21586;-90
2020/12/19 10:16:55;;;;;;;111.93;41.67;;;;;;;-0.89;92.47;100040.45;4479953;79;21132;-90
2020/12/19 10:22:57;;;;;;;98.17;37.97;;;;;;;-0.91;92.18;100043.39;4487994;78;21569;-91
2020/12/19 10:28:58;;;;;;;91.17;38.73;;;;;;;-1.13;92.08;100041.61;4516022;79;21385;-91
2020/12/19 10:35:03;;;;;;;94.50;39.13;;;;;;;-1.29;92.66;100030.63;4500077;78;21116;-91
2020/12/19 10:41:03;;;;;;;148.53;54.57;;;;;;;-1.33;92.31;100020.14;4488810;79;21895;-91
2020/12/19 10:47:05;;;;;;;114.22;44.80;;;;;;;-1.13;92.74;100021.98;4491731;79;21558;-90
2020/12/19 10:53:06;;;;;;;118.55;47.05;;;;;;;-1.10;92.51;100027.63;4479219;79;21176;-91
2020/12/19 10:59:08;;;;;;;109.80;43.63;;;;;;;-1.03;92.50;100025.44;4488101;79;21133;-91
2020/12/19 11:05:09;;;;;;;100.02;41.58;;;;;;;-0.93;92.40;100027.28;4517114;79;21444;-91
2020/12/19 11:11:11;;;;;;;98.80;40.37;;;;;;;-0.97;92.24;100030.27;4506419;79;21180;-90
2020/12/19 11:17:13;;;;;;;107.70;43.03;;;;;;;-0.96;92.54;100017.90;4515448;79;21157;-90
2020/12/19 11:23:14;;;;;;;107.00;43.52;;;;;;;-1.08;92.52;100007.98;4515744;79;21150;-90
2020/12/19 11:29:17;;;;;;;89.00;38.77;;;;;;;-1.06;92.74;100003.67;4392020;80;21189;-90
2020/12/19 11:35:18;;;;;;;90.38;37.58;;;;;;;-0.95;92.64;100012.78;4369833;81;21153;-90
2020/12/19 11:41:25;;;;;;;96.70;40.50;;;;;;;-1.09;92.74;100010.94;4350396;81;21121;-91
2020/12/19 11:47:26;;;;;;;;;;;;;;;-0.94;93.08;100008.22;4336225;82;21658;-91
2020/12/19 11:53:28;;;;;;;102.45;40.15;;;;;;;-0.68;93.24;100005.13;4338218;81;20552;-90
2020/12/19 11:59:29;;;;;;;95.77;38.78;;;;;;;-0.68;93.24;100005.13;4370666;81;21147;-90
2020/12/19 12:05:31;;;;;;;109.07;41.42;;;;;;;-0.62;93.03;99998.64;4373573;81;21191;-91
2020/12/19 12:11:33;;;;;;;100.50;39.43;;;;;;;-0.60;92.91;100003.74;4336901;81;21149;-90
2020/12/19 12:17:34;;;;;;;87.92;37.63;;;;;;;-0.56;92.88;100006.94;4346156;81;21182;-91
2020/12/19 12:23:36;;;;;;;103.75;41.63;;;;;;;-0.53;92.87;99998.84;4330104;81;21177;-91
2020/12/19 12:29:37;;;;;;;104.80;40.65;;;;;;;-0.61;92.97;99996.77;4333905;81;21181;-91
2020/12/19 12:35:39;;;;;;;87.00;37.20;;;;;;;-0.60;93.16;99994.33;4385257;81;21142;-91
2020/12/19 12:41:45;;;;;;;86.00;36.68;;;;;;;-0.51;93.22;99988.62;4405616;80;21193;-91
2020/12/19 12:47:47;;;;;;;76.25;32.13;;;;;;;-0.57;93.07;99984.36;4358258;80;21631;-90
2020/12/19 12:53:50;;;;;;;93.80;37.45;;;;;;;-0.57;92.87;99978.45;4327132;82;21794;-90
2020/12/19 12:59:52;;;;;;;102.38;39.98;;;;;;;-0.48;93.19;99975.95;4326678;82;21161;-90
2020/12/19 13:05:54;;;;;;;98.58;41.88;;;;;;;-0.34;93.33;99976.94;4362014;81;21138;-90
2020/12/19 13:11:55;;;;;;;134.52;50.52;;;;;;;-0.26;93.03;99963.70;4349378;81;21253;-91
2020/12/19 13:18:00;;;;;;;99.17;40.10;;;;;;;-0.30;92.87;99966.67;4353887;81;21130;-90
2020/12/19 13:24:00;;;;;;;86.82;37.35;;;;;;;-0.33;92.96;99975.88;4353422;81;21206;-90
2020/12/19 13:30:03;;;;;;;90.50;38.08;;;;;;;-0.46;92.62;99971.92;4353413;80;21202;-90
2020/12/19 13:43:04;;;;;;;93.10;39.07;;;;;;;-0.77;93.10;99972.38;4361540;80;21143;-90
2020/12/19 13:49:05;;;;;;;113.80;46.73;;;;;;;-0.65;93.19;99968.27;4357144;81;21194;-90
2020/12/19 13:55:08;;;;;;;107.15;42.78;;;;;;;-0.77;93.10;99964.31;4342135;81;21173;-90
2020/12/19 14:01:10;;;;;;;107.10;42.10;;;;;;;-0.66;93.41;99976.05;4340432;81;21202;-89
2020/12/19 14:07:12;;;;;;;89.90;38.98;;;;;;;-0.55;93.41;99979.52;4341055;80;21157;-89
2020/12/19 14:13:16;;;;;;;69.85;32.03;;;;;;;-0.44;93.10;99977.02;4342207;80;21178;-88
2020/12/19 14:19:18;;;;;;;82.00;32.63;;;;;;;-0.55;92.95;99982.20;4347726;81;22658;-89
2020/12/19 14:25:19;;;;;;;85.07;34.45;;;;;;;-0.57;93.13;99982.48;4344942;80;21160;-90
2020/12/19 14:31:21;;;;;;;96.08;34.65;;;;;;;-0.54;93.19;99989.18;4324177;80;21239;-89
2020/12/19 14:37:33;;;;;;;96.85;34.38;;;;;;;-0.53;93.20;99991.59;4271591;81;21296;-89
2020/12/19 14:43:35;;;;;;;76.57;32.53;;;;;;;-0.43;93.28;99992.07;4264523;81;21179;-90
2020/12/19 14:49:36;;;;;;;74.42;30.02;;;;;;;-0.46;93.11;99998.82;4287140;81;21181;-89
2020/12/19 14:55:38;;;;;;;75.60;29.48;;;;;;;-0.48;92.90;99996.13;4286651;81;21732;-90
2020/12/19 15:01:40;;;;;;;75.12;32.33;;;;;;;-0.62;92.84;99994.61;4239730;82;21220;-89
2020/12/19 15:07:42;;;;;;;91.50;31.95;;;;;;;-0.66;93.10;100000.82;4245119;82;21182;-92
2020/12/19 15:13:46;;;;;;;62.17;27.47;;;;;;;-0.76;93.27;100003.55;4279384;82;21617;-90
2020/12/19 15:19:48;;;;;;;74.03;31.83;;;;;;;-0.96;93.30;99999.62;4270871;82;21167;-90
2020/12/19 15:26:15;;;;;;;72.03;30.40;;;;;;;-0.82;93.34;99997.94;4272867;81;21587;-89
2020/12/19 15:32:17;;;;;;;78.00;31.20;;;;;;;-0.73;93.27;100001.12;4426486;78;21136;-89
2020/12/19 15:38:19;;;;;;;70.67;32.03;;;;;;;-0.73;93.61;100005.16;4449287;78;21185;-89
2020/12/19 15:44:21;;;;;;;74.37;29.30;;;;;;;-0.78;93.22;100006.52;4448918;78;21138;-89
2020/12/19 15:50:23;;;;;;;79.62;32.00;;;;;;;-0.91;93.58;100009.79;4453037;78;21146;-89
2020/12/19 15:56:26;;;;;;;80.97;37.27;;;;;;;-1.03;93.48;100007.16;4454505;78;21157;-89
2020/12/19 16:02:27;;;;;;;82.90;34.30;;;;;;;-1.02;93.51;100010.13;4424107;79;21137;-90
2020/12/19 16:08:28;;;;;;;109.93;42.50;;;;;;;-1.05;93.61;99999.92;4441512;78;21228;-89
2020/12/19 16:14:30;;;;;;;90.90;41.10;;;;;;;-0.86;93.91;100000.92;4438027;78;21121;-89
2020/12/19 16:20:31;;;;;;;89.00;35.10;;;;;;;-0.79;93.71;100004.92;4456375;78;21596;-89
2020/12/19 16:26:34;;;;;;;79.13;33.33;;;;;;;-0.93;93.32;100001.75;4445121;78;21594;-89
2020/12/19 16:32:35;;;;;;;100.92;38.80;;;;;;;-0.84;93.87;100004.13;4435682;79;21157;-90
2020/12/19 16:38:37;;;;;;;83.47;36.63;;;;;;;-0.79;93.60;100002.23;4440718;79;21164;-88
2020/12/19 16:44:38;;;;;;;95.63;38.10;;;;;;;-0.88;93.52;99994.48;4445821;78;21168;-89
2020/12/19 16:50:40;;;;;;;130.67;56.80;;;;;;;-0.99;93.72;99995.61;4444911;78;21593;-89
2020/12/19 16:56:44;;;;;;;110.00;44.53;;;;;;;-0.81;93.89;99991.47;4438860;78;21137;-89
2020/12/19 17:02:46;;;;;;;114.97;42.40;;;;;;;-0.84;93.69;99984.77;4441258;79;21165;-89
2020/12/19 17:09:02;;;;;;;94.10;40.30;;;;;;;-0.84;93.76;99992.84;4451452;79;21180;-88
2020/12/19 17:15:06;;;;;;;106.10;42.45;;;;;;;-0.90;93.52;99999.32;4451986;78;21129;-88
2020/12/19 17:21:07;;;;;;;144.77;59.15;;;;;;;-0.95;93.67;99993.15;4456284;78;21184;-89
2020/12/19 17:27:09;;;;;;;114.72;49.03;;;;;;;-0.90;93.77;99994.48;4449726;78;21192;-89
2020/12/19 17:33:10;;;;;;;111.47;43.77;;;;;;;-0.99;93.55;99996.14;4445917;78;21105;-88
2020/12/19 17:39:12;;;;;;;109.55;44.67;;;;;;;-0.93;93.71;100004.44;4442257;80;21154;-89
2020/12/19 17:45:13;;;;;;;117.30;50.97;;;;;;;-0.92;93.65;100006.03;4450228;78;21152;-89
2020/12/19 17:51:15;;;;;;;106.00;44.77;;;;;;;-0.95;93.44;100012.78;4446855;78;21163;-89
2020/12/19 17:57:16;;;;;;;108.07;43.67;;;;;;;-0.92;93.71;100005.51;4448407;78;21142;-89
2020/12/19 18:03:18;;;;;;;90.62;38.75;;;;;;;-0.91;93.50;99996.35;4444720;78;21149;-89
2020/12/19 18:09:19;;;;;;;76.35;32.78;;;;;;;-0.94;93.39;99994.22;4449195;78;21105;-88
2020/12/19 18:21:59;;;;;;;72.47;34.17;;;;;;;-1.25;93.15;99998.10;4076355;84;21203;-89
2020/12/19 18:28:00;;;;;;;79.77;31.87;;;;;;;-1.32;93.61;99998.94;4158920;84;21168;-88
2020/12/19 18:34:02;;;;;;;87.20;35.37;;;;;;;-1.23;93.67;100005.36;4030250;83;10000459;-89
2020/12/19 18:40:15;;;;;;;80.17;33.27;;;;;;;-1.16;93.49;100008.55;4136481;85;21146;-89
2020/12/19 18:46:17;;;;;;;69.93;30.47;;;;;;;-1.19;93.39;100002.38;4140592;84;21338;-88
2020/12/19 18:52:19;;;;;;;69.43;29.83;;;;;;;-1.29;93.09;100008.33;4146731;84;21162;-89
2020/12/19 18:58:22;;;;;;;66.63;30.10;;;;;;;-1.31;93.40;100014.50;4137155;84;21170;-89
2020/12/19 19:04:24;;;;;;;67.27;27.50;;;;;;;-1.37;93.18;100012.91;4066281;86;21561;-89
2020/12/19 19:10:26;;;;;;;58.37;25.70;;;;;;;-1.35;93.45;100008.89;4125188;84;21344;-89
2020/12/19 19:16:33;;;;;;;54.60;26.40;;;;;;;-1.42;93.15;100008.36;4144528;84;21377;-89
2020/12/19 19:22:32;;;;;;;60.57;26.40;;;;;;;-1.46;93.18;100007.30;4136387;84;21358;-89
2020/12/19 19:28:34;;;;;;;66.83;27.90;;;;;;;-1.51;93.12;100018.58;4049999;86;21225;-90
2020/12/19 19:34:37;;;;;;;76.93;34.43;;;;;;;-1.47;93.41;100022.35;4134379;86;21615;-92
2020/12/19 19:40:38;;;;;;;95.43;39.50;;;;;;;-1.49;92.99;100024.49;4136284;85;21182;-90
2020/12/19 19:46:40;;;;;;;124.73;51.20;;;;;;;-1.71;93.17;100023.45;4130295;85;21172;-90
2020/12/19 19:52:42;;;;;;;120.10;46.63;;;;;;;-1.94;93.38;100032.03;4044005;86;21728;-90
2020/12/19 19:58:43;;;;;;;138.43;55.40;;;;;;;-2.14;93.46;100028.81;4133068;85;21627;-89
2020/12/19 20:04:45;;;;;;;105.00;44.63;;;;;;;-2.17;93.59;100031.22;4132514;84;21759;-89
2020/12/19 20:10:46;;;;;;;112.00;44.87;;;;;;;-2.14;93.51;100028.00;4120405;85;21781;-88
2020/12/19 20:16:48;;;;;;;97.70;39.30;;;;;;;-2.00;93.81;100015.66;4121875;84;21185;-90
2020/12/19 20:22:49;;;;;;;122.33;44.70;;;;;;;-1.93;93.46;100024.27;4052291;86;21570;-90
2020/12/19 20:28:51;;;;;;;138.60;51.50;;;;;;;-1.90;93.49;100025.06;4067942;87;21748;-90
2020/12/19 20:34:53;;;;;;;120.27;48.20;;;;;;;-1.89;93.73;100028.02;4041086;86;21355;-89
2020/12/19 20:40:55;;;;;;;118.57;48.03;;;;;;;-1.88;93.50;100029.08;4061280;87;21221;-90
2020/12/19 20:46:58;;;;;;;124.17;50.40;;;;;;;-1.91;93.53;100033.64;4026444;87;21178;-91
2020/12/19 20:52:59;;;;;;;128.63;52.70;;;;;;;-1.99;93.52;100035.52;4028264;87;21201;-89
2020/12/19 20:59:01;;;;;;;117.67;49.53;;;;;;;-1.93;93.82;100037.69;4052967;86;21201;-89
2020/12/19 21:05:03;;;;;;;138.63;53.37;;;;;;;-1.82;93.86;100035.27;4052540;87;21332;-90
2020/12/19 21:11:05;;;;;;;134.67;53.00;;;;;;;-1.83;93.40;100043.84;4042214;87;21210;-90
2020/12/19 21:17:07;;;;;;;134.83;54.03;;;;;;;-1.82;93.60;100045.45;4061408;86;21179;-91
2020/12/19 21:23:08;;;;;;;114.50;47.40;;;;;;;-1.73;93.64;100054.59;4069345;84;21210;-91
2020/12/19 21:29:10;;;;;;;113.10;46.50;;;;;;;-1.87;93.48;100060.23;4126348;85;21181;-90
2020/12/19 21:35:14;;;;;;;131.57;50.87;;;;;;;-2.17;93.58;100060.20;4130974;84;21612;-90
2020/12/19 21:55:44;;;;;;;;;;;;;;;-1.81;93.57;100055.66;4147003;85;21607;-89
2020/12/19 22:01:49;;;;;;;144.00;55.97;;;;;;;-1.88;93.58;100060.50;4140039;85;20469;-89
2020/12/19 22:07:50;;;;;;;143.70;56.80;;;;;;;-1.88;93.46;100074.70;4140670;84;21626;-91
2020/12/19 22:13:52;;;;;;;138.00;51.60;;;;;;;-1.78;93.90;100079.28;4153333;83;21610;-90
2020/12/19 22:19:54;;;;;;;141.43;53.93;;;;;;;-1.87;93.41;100076.34;4063489;87;21585;-90
2020/12/19 22:25:56;;;;;;;136.30;54.10;;;;;;;-1.85;93.61;100083.56;4109664;85;21178;-89
2020/12/19 22:32:00;;;;;;;145.10;56.83;;;;;;;-1.84;93.40;100077.67;4100762;86;21197;-91
2020/12/19 22:38:02;;;;;;;137.37;54.07;;;;;;;-1.88;93.50;100074.70;4071059;86;21729;-90
2020/12/19 22:44:03;;;;;;;142.83;54.90;;;;;;;-1.90;93.38;100084.92;4120302;85;21190;-89
2020/12/19 22:50:08;;;;;;;164.53;64.80;;;;;;;-1.96;93.40;100073.11;4097661;85;21344;-89
2020/12/19 22:56:10;;;;;;;160.53;63.13;;;;;;;-1.94;93.71;100070.94;4119061;85;21296;-90
2020/12/19 23:02:12;;;;;;;143.83;58.77;;;;;;;-1.97;93.54;100074.16;4102726;86;21178;-90
2020/12/19 23:08:13;;;;;;;152.20;59.50;;;;;;;-2.09;93.53;100084.35;4096413;86;21169;-90
2020/12/19 23:14:15;;;;;;;159.67;61.77;;;;;;;-1.98;93.74;100085.45;4091378;85;21142;-91
2020/12/19 23:20:16;;;;;;;143.93;60.43;;;;;;;-1.91;93.76;100091.34;4096078;85;21197;-89
2020/12/19 23:26:20;;;;;;;140.37;57.03;;;;;;;-1.93;93.47;100088.67;4141381;85;21157;-90
2020/12/19 23:32:22;;;;;;;149.63;58.70;;;;;;;-1.99;93.36;100087.06;4154872;85;21160;-89
2020/12/19 23:38:24;;;;;;;148.97;56.90;;;;;;;-1.96;93.72;100090.55;4129415;85;21169;-90
2020/12/19 23:44:25;;;;;;;134.40;54.90;;;;;;;-2.00;93.38;100089.45;4151735;85;21646;-91
2020/12/19 23:50:27;;;;;;;119.73;52.07;;;;;;;-2.14;93.42;100087.02;4138240;85;21157;-90
2020/12/19 23:56:29;;;;;;;125.50;51.30;;;;;;;-2.18;93.38;100089.45;4139416;85;21156;-89
